sensor_id;sensor_type;location;lat;lon;timestamp;pressure;altitude;pressure_sealevel;temperature;humidity
22755;BME280;11544;42.020;23.094;2022-08-19T00:01:52;96847.16;;;21.68;63.58
22755;BME280;11544;42.020;23.094;2022-08-19T00:04:23;96854.13;;;21.59;63.60
22755;BME280;11544;42.020;23.094;2022-08-19T00:06:50;96862.06;;;21.90;62.89
22755;BME280;11544;42.020;23.094;2022-08-19T00:09:18;96875.06;;;21.62;63.41
22755;BME280;11544;42.020;23.094;2022-08-19T00:11:45;96878.19;;;22.08;62.99
22755;BME280;11544;42.020;23.094;2022-08-19T00:14:14;96882.41;;;21.80;64.22
22755;BME280;11544;42.020;23.094;2022-08-19T00:16:42;96875.19;;;21.91;62.86
22755;BME280;11544;42.020;23.094;2022-08-19T00:19:09;96866.00;;;21.95;62.75
22755;BME280;11544;42.020;23.094;2022-08-19T00:21:34;96855.19;;;21.87;62.79
22755;BME280;11544;42.020;23.094;2022-08-19T00:24:06;96846.47;;;21.03;66.50
22755;BME280;11544;42.020;23.094;2022-08-19T00:26:32;96851.03;;;21.64;65.69
22755;BME280;11544;42.020;23.094;2022-08-19T00:28:58;96852.41;;;21.89;64.84
22755;BME280;11544;42.020;23.094;2022-08-19T00:31:26;96852.84;;;21.63;64.98
22755;BME280;11544;42.020;23.094;2022-08-19T00:33:54;96855.88;;;21.80;65.08
22755;BME280;11544;42.020;23.094;2022-08-19T00:36:20;96855.34;;;21.86;65.40
22755;BME280;11544;42.020;23.094;2022-08-19T00:38:46;96856.84;;;21.48;65.52
22755;BME280;11544;42.020;23.094;2022-08-19T00:41:14;96852.47;;;21.68;66.11
22755;BME280;11544;42.020;23.094;2022-08-19T00:43:41;96852.09;;;22.13;63.37
22755;BME280;11544;42.020;23.094;2022-08-19T00:46:07;96850.50;;;22.01;62.58
22755;BME280;11544;42.020;23.094;2022-08-19T00:48:33;96842.25;;;21.94;64.25
22755;BME280;11544;42.020;23.094;2022-08-19T00:51:00;96844.09;;;22.03;64.40
22755;BME280;11544;42.020;23.094;2022-08-19T00:53:29;96847.91;;;21.49;64.46
22755;BME280;11544;42.020;23.094;2022-08-19T00:55:59;96845.97;;;21.82;65.26
22755;BME280;11544;42.020;23.094;2022-08-19T00:58:29;96846.09;;;21.80;64.30
22755;BME280;11544;42.020;23.094;2022-08-19T01:00:55;96846.22;;;21.48;64.83
22755;BME280;11544;42.020;23.094;2022-08-19T01:03:22;96860.25;;;21.39;65.43
22755;BME280;11544;42.020;23.094;2022-08-19T01:05:49;96857.38;;;21.72;65.46
22755;BME280;11544;42.020;23.094;2022-08-19T01:08:17;96856.81;;;21.27;66.35
22755;BME280;11544;42.020;23.094;2022-08-19T01:10:49;96861.94;;;21.40;67.38
22755;BME280;11544;42.020;23.094;2022-08-19T01:13:17;96865.22;;;21.32;67.33
22755;BME280;11544;42.020;23.094;2022-08-19T01:15:53;96864.06;;;21.67;68.21
22755;BME280;11544;42.020;23.094;2022-08-19T01:18:21;96850.47;;;21.60;67.35
22755;BME280;11544;42.020;23.094;2022-08-19T01:20:47;96856.31;;;21.85;66.50
22755;BME280;11544;42.020;23.094;2022-08-19T01:23:14;96861.84;;;21.30;68.62
22755;BME280;11544;42.020;23.094;2022-08-19T01:25:44;96855.47;;;21.53;66.71
22755;BME280;11544;42.020;23.094;2022-08-19T01:28:20;96858.19;;;21.42;66.16
22755;BME280;11544;42.020;23.094;2022-08-19T01:30:47;96859.00;;;21.01;67.58
22755;BME280;11544;42.020;23.094;2022-08-19T01:33:14;96856.88;;;21.15;67.45
22755;BME280;11544;42.020;23.094;2022-08-19T01:35:41;96863.25;;;21.13;67.52
22755;BME280;11544;42.020;23.094;2022-08-19T01:38:10;96869.25;;;21.47;68.28
22755;BME280;11544;42.020;23.094;2022-08-19T01:40:38;96870.84;;;20.85;69.55
22755;BME280;11544;42.020;23.094;2022-08-19T01:43:05;96872.72;;;21.27;67.77
22755;BME280;11544;42.020;23.094;2022-08-19T01:45:33;96874.91;;;21.01;68.70
22755;BME280;11544;42.020;23.094;2022-08-19T01:47:59;96871.72;;;20.86;68.05
22755;BME280;11544;42.020;23.094;2022-08-19T01:50:26;96873.59;;;21.16;68.60
22755;BME280;11544;42.020;23.094;2022-08-19T01:52:52;96876.94;;;20.97;69.77
22755;BME280;11544;42.020;23.094;2022-08-19T01:55:20;96878.38;;;21.01;68.95
22755;BME280;11544;42.020;23.094;2022-08-19T01:57:52;96876.88;;;20.87;68.43
22755;BME280;11544;42.020;23.094;2022-08-19T02:00:23;96877.91;;;20.96;68.97
22755;BME280;11544;42.020;23.094;2022-08-19T02:02:48;96868.53;;;20.92;68.18
22755;BME280;11544;42.020;23.094;2022-08-19T02:05:14;96865.25;;;21.21;67.58
22755;BME280;11544;42.020;23.094;2022-08-19T02:07:41;96873.25;;;20.56;68.88
22755;BME280;11544;42.020;23.094;2022-08-19T02:10:13;96869.75;;;20.88;69.64
22755;BME280;11544;42.020;23.094;2022-08-19T02:12:39;96867.38;;;20.85;68.57
22755;BME280;11544;42.020;23.094;2022-08-19T02:15:05;96862.09;;;20.73;68.79
22755;BME280;11544;42.020;23.094;2022-08-19T02:17:33;96856.44;;;20.78;69.50
22755;BME280;11544;42.020;23.094;2022-08-19T02:19:59;96862.38;;;20.70;69.41
22755;BME280;11544;42.020;23.094;2022-08-19T02:22:25;96868.41;;;20.50;70.13
22755;BME280;11544;42.020;23.094;2022-08-19T02:24:52;96873.03;;;20.03;71.00
22755;BME280;11544;42.020;23.094;2022-08-19T02:27:18;96874.97;;;21.10;70.99
22755;BME280;11544;42.020;23.094;2022-08-19T02:29:45;96875.31;;;20.85;70.57
22755;BME280;11544;42.020;23.094;2022-08-19T02:32:11;96878.63;;;20.55;71.17
22755;BME280;11544;42.020;23.094;2022-08-19T02:34:37;96870.19;;;20.72;71.64
22755;BME280;11544;42.020;23.094;2022-08-19T02:37:02;96878.84;;;20.08;72.04
22755;BME280;11544;42.020;23.094;2022-08-19T02:39:28;96884.19;;;20.40;74.29
22755;BME280;11544;42.020;23.094;2022-08-19T02:41:54;96879.97;;;20.49;71.47
22755;BME280;11544;42.020;23.094;2022-08-19T02:44:19;96874.63;;;20.71;73.74
22755;BME280;11544;42.020;23.094;2022-08-19T02:46:47;96885.16;;;20.50;72.18
22755;BME280;11544;42.020;23.094;2022-08-19T02:49:13;96879.13;;;20.60;72.01
22755;BME280;11544;42.020;23.094;2022-08-19T02:51:43;96880.91;;;20.48;71.24
22755;BME280;11544;42.020;23.094;2022-08-19T02:54:11;96888.56;;;20.07;72.72
22755;BME280;11544;42.020;23.094;2022-08-19T02:56:40;96882.16;;;20.21;72.09
22755;BME280;11544;42.020;23.094;2022-08-19T02:59:06;96890.81;;;20.46;72.83
22755;BME280;11544;42.020;23.094;2022-08-19T03:01:34;96888.75;;;20.38;73.52
22755;BME280;11544;42.020;23.094;2022-08-19T03:04:03;96891.56;;;20.03;72.44
22755;BME280;11544;42.020;23.094;2022-08-19T03:06:30;96882.19;;;19.76;72.67
22755;BME280;11544;42.020;23.094;2022-08-19T03:08:56;96881.69;;;19.94;73.20
22755;BME280;11544;42.020;23.094;2022-08-19T03:11:27;96896.50;;;20.07;72.08
22755;BME280;11544;42.020;23.094;2022-08-19T03:13:54;96896.38;;;19.29;74.67
22755;BME280;11544;42.020;23.094;2022-08-19T03:16:24;96905.34;;;19.61;74.46
22755;BME280;11544;42.020;23.094;2022-08-19T03:18:51;96903.09;;;19.91;73.75
22755;BME280;11544;42.020;23.094;2022-08-19T03:21:21;96910.22;;;19.90;73.65
22755;BME280;11544;42.020;23.094;2022-08-19T03:23:49;96900.59;;;19.78;73.54
22755;BME280;11544;42.020;23.094;2022-08-19T03:26:15;96904.38;;;19.62;73.71
22755;BME280;11544;42.020;23.094;2022-08-19T03:28:43;96901.88;;;19.72;73.87
22755;BME280;11544;42.020;23.094;2022-08-19T03:31:13;96901.94;;;19.48;74.46
22755;BME280;11544;42.020;23.094;2022-08-19T03:33:39;96913.38;;;19.13;76.09
22755;BME280;11544;42.020;23.094;2022-08-19T03:38:42;96912.72;;;20.03;74.78
22755;BME280;11544;42.020;23.094;2022-08-19T03:41:11;96914.66;;;19.78;74.94
22755;BME280;11544;42.020;23.094;2022-08-19T03:43:38;96903.69;;;19.72;74.86
22755;BME280;11544;42.020;23.094;2022-08-19T03:46:07;96908.75;;;19.75;74.97
22755;BME280;11544;42.020;23.094;2022-08-19T03:48:35;96904.94;;;20.01;73.89
22755;BME280;11544;42.020;23.094;2022-08-19T03:51:02;96906.50;;;20.04;74.76
22755;BME280;11544;42.020;23.094;2022-08-19T03:53:29;96910.09;;;20.14;72.77
22755;BME280;11544;42.020;23.094;2022-08-19T03:55:56;96913.09;;;20.09;73.64
22755;BME280;11544;42.020;23.094;2022-08-19T03:58:23;96917.88;;;19.71;74.16
22755;BME280;11544;42.020;23.094;2022-08-19T04:00:49;96923.31;;;20.37;73.17
22755;BME280;11544;42.020;23.094;2022-08-19T04:03:15;96925.00;;;20.04;73.04
22755;BME280;11544;42.020;23.094;2022-08-19T04:05:41;96923.91;;;19.49;74.73
22755;BME280;11544;42.020;23.094;2022-08-19T04:08:06;96929.44;;;20.37;73.27
22755;BME280;11544;42.020;23.094;2022-08-19T04:10:38;96929.56;;;19.91;73.60
22755;BME280;11544;42.020;23.094;2022-08-19T04:13:06;96934.59;;;19.94;74.80
22755;BME280;11544;42.020;23.094;2022-08-19T04:15:32;96931.84;;;19.73;74.48
22755;BME280;11544;42.020;23.094;2022-08-19T04:18:05;96930.03;;;20.07;72.82
22755;BME280;11544;42.020;23.094;2022-08-19T04:20:39;96934.97;;;20.12;72.72
22755;BME280;11544;42.020;23.094;2022-08-19T04:23:05;96939.06;;;19.93;73.56
22755;BME280;11544;42.020;23.094;2022-08-19T04:25:36;96940.31;;;19.65;76.06
22755;BME280;11544;42.020;23.094;2022-08-19T04:28:02;96940.72;;;19.72;76.60
22755;BME280;11544;42.020;23.094;2022-08-19T04:30:28;96948.81;;;19.57;77.29
22755;BME280;11544;42.020;23.094;2022-08-19T04:32:54;96940.75;;;19.83;77.30
22755;BME280;11544;42.020;23.094;2022-08-19T04:35:19;96956.53;;;19.25;78.59
22755;BME280;11544;42.020;23.094;2022-08-19T04:37:45;96961.91;;;20.05;77.11
22755;BME280;11544;42.020;23.094;2022-08-19T04:40:11;96965.91;;;20.11;75.43
22755;BME280;11544;42.020;23.094;2022-08-19T04:43:03;96966.09;;;19.50;77.54
22755;BME280;11544;42.020;23.094;2022-08-19T04:45:29;96963.59;;;20.40;76.18
22755;BME280;11544;42.020;23.094;2022-08-19T04:47:55;96966.72;;;20.45;77.42
22755;BME280;11544;42.020;23.094;2022-08-19T04:50:25;96967.44;;;20.47;75.10
22755;BME280;11544;42.020;23.094;2022-08-19T04:52:51;96961.19;;;20.26;74.02
22755;BME280;11544;42.020;23.094;2022-08-19T04:55:17;96960.63;;;20.22;74.13
22755;BME280;11544;42.020;23.094;2022-08-19T04:57:43;96956.38;;;21.20;71.23
22755;BME280;11544;42.020;23.094;2022-08-19T05:00:09;96957.41;;;21.28;69.22
22755;BME280;11544;42.020;23.094;2022-08-19T05:02:36;96962.72;;;21.28;69.45
22755;BME280;11544;42.020;23.094;2022-08-19T05:05:03;96948.16;;;21.76;66.75
22755;BME280;11544;42.020;23.094;2022-08-19T05:07:29;96963.00;;;22.09;66.38
22755;BME280;11544;42.020;23.094;2022-08-19T05:09:54;96953.72;;;22.25;65.71
22755;BME280;11544;42.020;23.094;2022-08-19T05:12:20;96958.56;;;22.40;64.86
22755;BME280;11544;42.020;23.094;2022-08-19T05:14:46;96957.25;;;22.66;63.08
22755;BME280;11544;42.020;23.094;2022-08-19T05:17:15;96964.06;;;21.55;65.77
22755;BME280;11544;42.020;23.094;2022-08-19T05:19:40;96961.78;;;21.18;68.11
22755;BME280;11544;42.020;23.094;2022-08-19T05:22:24;96953.56;;;21.74;66.14
22755;BME280;11544;42.020;23.094;2022-08-19T05:25:05;96959.44;;;21.36;67.66
22755;BME280;11544;42.020;23.094;2022-08-19T05:27:31;96954.47;;;22.36;65.12
22755;BME280;11544;42.020;23.094;2022-08-19T05:29:57;96959.00;;;21.52;65.75
22755;BME280;11544;42.020;23.094;2022-08-19T05:32:23;96944.91;;;21.72;66.82
22755;BME280;11544;42.020;23.094;2022-08-19T05:34:49;96945.13;;;21.81;66.43
22755;BME280;11544;42.020;23.094;2022-08-19T05:37:15;96941.16;;;21.75;66.39
22755;BME280;11544;42.020;23.094;2022-08-19T05:39:40;96943.72;;;22.98;63.95
22755;BME280;11544;42.020;23.094;2022-08-19T05:42:08;96935.88;;;23.94;62.44
22755;BME280;11544;42.020;23.094;2022-08-19T05:44:38;96932.22;;;24.69;59.99
22755;BME280;11544;42.020;23.094;2022-08-19T05:47:06;96942.03;;;23.94;60.80
22755;BME280;11544;42.020;23.094;2022-08-19T05:49:32;96932.13;;;25.07;58.89
22755;BME280;11544;42.020;23.094;2022-08-19T05:51:58;96934.97;;;25.23;57.27
22755;BME280;11544;42.020;23.094;2022-08-19T05:54:26;96934.78;;;25.07;57.92
22755;BME280;11544;42.020;23.094;2022-08-19T05:56:53;96942.53;;;25.28;57.46
22755;BME280;11544;42.020;23.094;2022-08-19T05:59:20;96932.47;;;24.94;58.52
22755;BME280;11544;42.020;23.094;2022-08-19T06:01:49;96927.81;;;25.24;57.18
22755;BME280;11544;42.020;23.094;2022-08-19T06:04:19;96928.63;;;25.42;56.61
22755;BME280;11544;42.020;23.094;2022-08-19T06:06:47;96924.75;;;25.19;57.48
22755;BME280;11544;42.020;23.094;2022-08-19T06:09:13;96935.59;;;25.35;57.15
22755;BME280;11544;42.020;23.094;2022-08-19T06:11:43;96928.31;;;25.09;58.10
22755;BME280;11544;42.020;23.094;2022-08-19T06:14:13;96930.94;;;24.91;58.30
22755;BME280;11544;42.020;23.094;2022-08-19T06:16:40;96924.97;;;25.07;57.49
22755;BME280;11544;42.020;23.094;2022-08-19T06:19:09;96933.28;;;25.22;56.75
22755;BME280;11544;42.020;23.094;2022-08-19T06:21:37;96934.03;;;25.14;56.10
22755;BME280;11544;42.020;23.094;2022-08-19T06:24:10;96931.44;;;25.23;57.42
22755;BME280;11544;42.020;23.094;2022-08-19T06:26:38;96934.53;;;26.24;54.37
22755;BME280;11544;42.020;23.094;2022-08-19T06:29:05;96949.78;;;25.80;57.07
22755;BME280;11544;42.020;23.094;2022-08-19T06:31:33;96939.06;;;25.00;56.74
22755;BME280;11544;42.020;23.094;2022-08-19T06:34:01;96928.81;;;26.11;54.01
22755;BME280;11544;42.020;23.094;2022-08-19T06:36:41;96925.66;;;27.09;51.44
22755;BME280;11544;42.020;23.094;2022-08-19T06:39:19;96930.75;;;26.01;54.12
22755;BME280;11544;42.020;23.094;2022-08-19T06:41:48;96930.44;;;25.60;55.33
22755;BME280;11544;42.020;23.094;2022-08-19T06:44:17;96932.44;;;26.70;51.11
22755;BME280;11544;42.020;23.094;2022-08-19T06:46:44;96930.69;;;27.03;50.10
22755;BME280;11544;42.020;23.094;2022-08-19T06:49:10;96934.53;;;26.24;52.62
22755;BME280;11544;42.020;23.094;2022-08-19T06:51:43;96931.03;;;26.24;53.56
22755;BME280;11544;42.020;23.094;2022-08-19T06:54:10;96919.22;;;27.28;50.68
22755;BME280;11544;42.020;23.094;2022-08-19T06:56:37;96926.59;;;26.75;51.47
22755;BME280;11544;42.020;23.094;2022-08-19T06:59:06;96923.06;;;27.41;50.38
22755;BME280;11544;42.020;23.094;2022-08-19T07:01:38;96929.06;;;26.60;52.38
22755;BME280;11544;42.020;23.094;2022-08-19T07:04:07;96916.69;;;27.42;50.43
22755;BME280;11544;42.020;23.094;2022-08-19T07:06:34;96932.41;;;26.62;52.14
22755;BME280;11544;42.020;23.094;2022-08-19T07:09:00;96917.03;;;27.23;50.09
22755;BME280;11544;42.020;23.094;2022-08-19T07:11:26;96918.50;;;27.17;49.45
22755;BME280;11544;42.020;23.094;2022-08-19T07:13:53;96921.69;;;28.03;47.12
22755;BME280;11544;42.020;23.094;2022-08-19T07:16:20;96917.56;;;27.59;47.46
22755;BME280;11544;42.020;23.094;2022-08-19T07:18:49;96912.00;;;27.44;50.17
22755;BME280;11544;42.020;23.094;2022-08-19T07:21:22;96919.88;;;27.30;49.88
22755;BME280;11544;42.020;23.094;2022-08-19T07:23:50;96914.00;;;27.92;47.72
22755;BME280;11544;42.020;23.094;2022-08-19T07:26:23;96912.84;;;27.86;47.15
22755;BME280;11544;42.020;23.094;2022-08-19T07:28:50;96915.81;;;28.63;45.50
22755;BME280;11544;42.020;23.094;2022-08-19T07:31:19;96917.13;;;28.28;47.67
22755;BME280;11544;42.020;23.094;2022-08-19T07:33:46;96910.44;;;28.16;47.24
22755;BME280;11544;42.020;23.094;2022-08-19T07:36:14;96907.78;;;28.07;46.26
22755;BME280;11544;42.020;23.094;2022-08-19T07:38:47;96902.59;;;28.14;45.88
22755;BME280;11544;42.020;23.094;2022-08-19T07:41:18;96905.53;;;28.36;44.89
22755;BME280;11544;42.020;23.094;2022-08-19T07:43:45;96910.88;;;28.36;44.76
22755;BME280;11544;42.020;23.094;2022-08-19T07:46:11;96909.00;;;28.53;44.06
22755;BME280;11544;42.020;23.094;2022-08-19T07:48:41;96901.34;;;28.33;44.33
22755;BME280;11544;42.020;23.094;2022-08-19T07:51:09;96901.00;;;28.76;43.41
22755;BME280;11544;42.020;23.094;2022-08-19T07:53:36;96898.25;;;28.61;44.76
22755;BME280;11544;42.020;23.094;2022-08-19T07:56:04;96901.75;;;28.61;45.78
22755;BME280;11544;42.020;23.094;2022-08-19T07:58:32;96896.84;;;28.73;44.70
22755;BME280;11544;42.020;23.094;2022-08-19T08:00:59;96892.59;;;28.79;43.80
22755;BME280;11544;42.020;23.094;2022-08-19T08:03:27;96890.56;;;29.12;43.82
22755;BME280;11544;42.020;23.094;2022-08-19T08:06:13;96887.81;;;29.43;42.28
22755;BME280;11544;42.020;23.094;2022-08-19T08:08:58;96888.91;;;29.34;41.29
22755;BME280;11544;42.020;23.094;2022-08-19T08:11:45;96890.44;;;29.51;42.38
22755;BME280;11544;42.020;23.094;2022-08-19T08:14:17;96880.25;;;29.62;43.43
22755;BME280;11544;42.020;23.094;2022-08-19T08:16:43;96879.63;;;30.12;40.58
22755;BME280;11544;42.020;23.094;2022-08-19T08:19:12;96876.84;;;30.50;41.77
22755;BME280;11544;42.020;23.094;2022-08-19T08:21:40;96878.50;;;30.07;41.10
22755;BME280;11544;42.020;23.094;2022-08-19T08:24:10;96866.88;;;30.66;40.99
22755;BME280;11544;42.020;23.094;2022-08-19T08:26:36;96869.31;;;30.16;39.71
22755;BME280;11544;42.020;23.094;2022-08-19T08:29:02;96858.31;;;30.26;39.38
22755;BME280;11544;42.020;23.094;2022-08-19T08:31:28;96862.84;;;30.10;40.96
22755;BME280;11544;42.020;23.094;2022-08-19T08:33:54;96858.16;;;30.64;40.67
22755;BME280;11544;42.020;23.094;2022-08-19T08:36:20;96860.69;;;30.35;41.31
22755;BME280;11544;42.020;23.094;2022-08-19T08:38:46;96846.34;;;30.43;39.82
22755;BME280;11544;42.020;23.094;2022-08-19T08:43:59;96841.44;;;31.05;38.30
22755;BME280;11544;42.020;23.094;2022-08-19T08:46:39;96838.22;;;30.94;40.10
22755;BME280;11544;42.020;23.094;2022-08-19T08:51:54;96837.38;;;31.37;38.29
22755;BME280;11544;42.020;23.094;2022-08-19T08:54:25;96828.97;;;31.75;39.41
22755;BME280;11544;42.020;23.094;2022-08-19T08:56:56;96824.53;;;31.60;38.77
22755;BME280;11544;42.020;23.094;2022-08-19T08:59:28;96821.00;;;31.10;38.28
22755;BME280;11544;42.020;23.094;2022-08-19T09:01:56;96818.28;;;31.32;39.61
22755;BME280;11544;42.020;23.094;2022-08-19T09:04:22;96819.34;;;31.87;37.28
22755;BME280;11544;42.020;23.094;2022-08-19T09:09:44;96821.41;;;32.26;38.32
22755;BME280;11544;42.020;23.094;2022-08-19T09:15:06;96802.31;;;32.69;36.76
22755;BME280;11544;42.020;23.094;2022-08-19T09:17:33;96805.84;;;32.70;35.47
22755;BME280;11544;42.020;23.094;2022-08-19T09:20:08;96803.91;;;32.57;36.06
22755;BME280;11544;42.020;23.094;2022-08-19T09:22:41;96798.59;;;32.77;35.33
22755;BME280;11544;42.020;23.094;2022-08-19T09:25:12;96791.53;;;32.83;35.65
22755;BME280;11544;42.020;23.094;2022-08-19T09:27:40;96790.66;;;32.69;35.99
22755;BME280;11544;42.020;23.094;2022-08-19T09:30:09;96789.28;;;32.93;35.35
22755;BME280;11544;42.020;23.094;2022-08-19T09:32:35;96781.56;;;32.83;35.77
22755;BME280;11544;42.020;23.094;2022-08-19T09:35:04;96782.34;;;32.64;35.70
22755;BME280;11544;42.020;23.094;2022-08-19T09:37:31;96767.84;;;32.72;36.51
22755;BME280;11544;42.020;23.094;2022-08-19T09:39:57;96767.47;;;32.81;35.32
22755;BME280;11544;42.020;23.094;2022-08-19T09:42:23;96762.31;;;33.20;35.81
22755;BME280;11544;42.020;23.094;2022-08-19T09:44:48;96759.38;;;32.81;36.32
22755;BME280;11544;42.020;23.094;2022-08-19T09:47:14;96751.69;;;32.92;35.07
22755;BME280;11544;42.020;23.094;2022-08-19T09:49:41;96756.47;;;33.16;35.67
22755;BME280;11544;42.020;23.094;2022-08-19T09:52:11;96752.97;;;33.29;35.28
22755;BME280;11544;42.020;23.094;2022-08-19T09:54:38;96747.31;;;32.90;34.91
22755;BME280;11544;42.020;23.094;2022-08-19T09:57:04;96740.47;;;33.35;35.46
22755;BME280;11544;42.020;23.094;2022-08-19T09:59:30;96737.78;;;33.35;35.48
22755;BME280;11544;42.020;23.094;2022-08-19T10:01:58;96727.81;;;33.62;34.82
22755;BME280;11544;42.020;23.094;2022-08-19T10:04:24;96733.75;;;33.77;34.07
22755;BME280;11544;42.020;23.094;2022-08-19T10:07:10;96733.66;;;34.04;34.44
22755;BME280;11544;42.020;23.094;2022-08-19T10:09:36;96722.34;;;33.75;33.89
22755;BME280;11544;42.020;23.094;2022-08-19T10:12:09;96724.22;;;33.68;34.91
22755;BME280;11544;42.020;23.094;2022-08-19T10:14:36;96724.03;;;33.63;34.90
22755;BME280;11544;42.020;23.094;2022-08-19T10:17:02;96716.72;;;33.77;33.29
22755;BME280;11544;42.020;23.094;2022-08-19T10:19:28;96715.94;;;33.63;34.23
22755;BME280;11544;42.020;23.094;2022-08-19T10:22:05;96720.06;;;33.72;34.25
22755;BME280;11544;42.020;23.094;2022-08-19T10:24:33;96710.50;;;33.69;33.72
22755;BME280;11544;42.020;23.094;2022-08-19T10:27:00;96707.41;;;33.59;34.07
22755;BME280;11544;42.020;23.094;2022-08-19T10:29:30;96708.25;;;33.53;33.83
22755;BME280;11544;42.020;23.094;2022-08-19T10:31:58;96702.56;;;33.81;34.09
22755;BME280;11544;42.020;23.094;2022-08-19T10:34:26;96694.69;;;33.73;33.98
22755;BME280;11544;42.020;23.094;2022-08-19T10:36:52;96694.78;;;34.05;33.79
22755;BME280;11544;42.020;23.094;2022-08-19T10:39:18;96685.41;;;34.07;33.14
22755;BME280;11544;42.020;23.094;2022-08-19T10:41:44;96687.69;;;34.10;33.28
22755;BME280;11544;42.020;23.094;2022-08-19T10:44:12;96686.41;;;34.20;31.93
22755;BME280;11544;42.020;23.094;2022-08-19T10:46:40;96682.75;;;33.94;31.66
22755;BME280;11544;42.020;23.094;2022-08-19T10:49:08;96676.69;;;34.12;32.23
22755;BME280;11544;42.020;23.094;2022-08-19T10:51:35;96675.69;;;34.00;32.95
22755;BME280;11544;42.020;23.094;2022-08-19T10:54:20;96677.44;;;34.26;32.10
22755;BME280;11544;42.020;23.094;2022-08-19T10:56:46;96676.19;;;33.77;31.25
22755;BME280;11544;42.020;23.094;2022-08-19T10:59:25;96669.19;;;34.14;30.89
22755;BME280;11544;42.020;23.094;2022-08-19T11:02:00;96663.16;;;34.05;29.58
22755;BME280;11544;42.020;23.094;2022-08-19T11:04:27;96664.66;;;34.40;30.81
22755;BME280;11544;42.020;23.094;2022-08-19T11:06:53;96661.88;;;34.21;30.73
22755;BME280;11544;42.020;23.094;2022-08-19T11:09:23;96659.03;;;33.96;29.87
22755;BME280;11544;42.020;23.094;2022-08-19T11:11:50;96651.66;;;34.23;31.00
22755;BME280;11544;42.020;23.094;2022-08-19T11:14:18;96645.38;;;34.61;30.95
22755;BME280;11544;42.020;23.094;2022-08-19T11:16:47;96646.06;;;34.50;31.52
22755;BME280;11544;42.020;23.094;2022-08-19T11:19:13;96652.94;;;34.46;30.81
22755;BME280;11544;42.020;23.094;2022-08-19T11:21:44;96648.31;;;34.53;30.96
22755;BME280;11544;42.020;23.094;2022-08-19T11:24:17;96642.03;;;34.59;31.00
22755;BME280;11544;42.020;23.094;2022-08-19T11:26:43;96633.31;;;34.57;30.52
22755;BME280;11544;42.020;23.094;2022-08-19T11:29:15;96625.53;;;34.67;30.93
22755;BME280;11544;42.020;23.094;2022-08-19T11:31:43;96630.97;;;34.67;30.09
22755;BME280;11544;42.020;23.094;2022-08-19T11:34:14;96625.59;;;34.61;30.07
22755;BME280;11544;42.020;23.094;2022-08-19T11:36:42;96622.09;;;34.53;29.82
22755;BME280;11544;42.020;23.094;2022-08-19T11:39:12;96617.78;;;34.46;29.59
22755;BME280;11544;42.020;23.094;2022-08-19T11:41:39;96613.72;;;33.98;30.04
22755;BME280;11544;42.020;23.094;2022-08-19T11:44:05;96606.22;;;34.64;29.35
22755;BME280;11544;42.020;23.094;2022-08-19T11:46:34;96601.91;;;34.81;29.46
22755;BME280;11544;42.020;23.094;2022-08-19T11:49:00;96598.41;;;34.99;28.57
22755;BME280;11544;42.020;23.094;2022-08-19T11:51:30;96587.56;;;34.99;29.23
22755;BME280;11544;42.020;23.094;2022-08-19T11:53:57;96593.50;;;34.89;28.15
22755;BME280;11544;42.020;23.094;2022-08-19T11:56:24;96596.00;;;35.09;29.26
22755;BME280;11544;42.020;23.094;2022-08-19T11:58:51;96585.38;;;34.89;29.30
22755;BME280;11544;42.020;23.094;2022-08-19T12:01:19;96579.22;;;35.00;30.03
22755;BME280;11544;42.020;23.094;2022-08-19T12:03:47;96574.47;;;34.96;29.04
22755;BME280;11544;42.020;23.094;2022-08-19T12:06:17;96572.34;;;35.23;29.41
22755;BME280;11544;42.020;23.094;2022-08-19T12:08:44;96574.03;;;35.17;29.65
22755;BME280;11544;42.020;23.094;2022-08-19T12:11:12;96560.25;;;35.00;29.29
22755;BME280;11544;42.020;23.094;2022-08-19T12:13:39;96557.44;;;35.14;28.29
22755;BME280;11544;42.020;23.094;2022-08-19T12:16:11;96557.19;;;35.34;27.92
22755;BME280;11544;42.020;23.094;2022-08-19T12:18:38;96548.13;;;35.58;28.09
22755;BME280;11544;42.020;23.094;2022-08-19T12:21:06;96550.47;;;35.55;28.10
22755;BME280;11544;42.020;23.094;2022-08-19T12:23:33;96543.44;;;35.35;28.49
22755;BME280;11544;42.020;23.094;2022-08-19T12:25:58;96541.41;;;35.31;28.07
22755;BME280;11544;42.020;23.094;2022-08-19T12:28:24;96534.94;;;35.32;28.51
22755;BME280;11544;42.020;23.094;2022-08-19T12:30:51;96540.63;;;35.42;28.26
22755;BME280;11544;42.020;23.094;2022-08-19T12:33:18;96545.06;;;35.36;28.66
22755;BME280;11544;42.020;23.094;2022-08-19T12:35:45;96534.84;;;35.38;28.35
22755;BME280;11544;42.020;23.094;2022-08-19T12:38:23;96530.75;;;35.48;28.08
22755;BME280;11544;42.020;23.094;2022-08-19T12:40:49;96530.31;;;35.51;28.09
22755;BME280;11544;42.020;23.094;2022-08-19T12:43:17;96525.19;;;35.42;28.44
22755;BME280;11544;42.020;23.094;2022-08-19T12:45:45;96520.78;;;35.60;28.24
22755;BME280;11544;42.020;23.094;2022-08-19T12:48:11;96523.63;;;35.53;27.54
22755;BME280;11544;42.020;23.094;2022-08-19T12:50:41;96525.88;;;35.38;26.75
22755;BME280;11544;42.020;23.094;2022-08-19T12:53:07;96522.44;;;35.31;27.40
22755;BME280;11544;42.020;23.094;2022-08-19T12:55:33;96519.00;;;35.54;27.10
22755;BME280;11544;42.020;23.094;2022-08-19T12:57:59;96515.50;;;35.53;27.09
22755;BME280;11544;42.020;23.094;2022-08-19T13:00:27;96508.00;;;35.37;26.82
22755;BME280;11544;42.020;23.094;2022-08-19T13:02:54;96508.53;;;35.57;27.09
22755;BME280;11544;42.020;23.094;2022-08-19T13:05:24;96509.16;;;35.41;27.95
22755;BME280;11544;42.020;23.094;2022-08-19T13:07:52;96499.38;;;35.58;27.98
22755;BME280;11544;42.020;23.094;2022-08-19T13:10:22;96512.13;;;35.39;27.02